sensor_id;sensor_type;location;lat;lon;timestamp;pressure;altitude;pressure_sealevel;temperature;humidity
18201;BME280;9226;47.858;9.594;2022-08-14T00:01:07;94881.13;;;18.75;51.40
18201;BME280;9226;47.858;9.594;2022-08-14T00:03:33;94871.78;;;18.71;51.76
18201;BME280;9226;47.858;9.594;2022-08-14T00:06:00;94871.78;;;18.71;51.71
18201;BME280;9226;47.858;9.594;2022-08-14T00:08:26;94866.41;;;18.71;51.35
18201;BME280;9226;47.858;9.594;2022-08-14T00:10:52;94855.84;;;18.69;51.30
18201;BME280;9226;47.858;9.594;2022-08-14T00:13:19;94856.25;;;18.66;51.32
18201;BME280;9226;47.858;9.594;2022-08-14T00:15:46;94862.19;;;18.61;51.67
18201;BME280;9226;47.858;9.594;2022-08-14T00:18:22;94854.50;;;18.58;52.03
18201;BME280;9226;47.858;9.594;2022-08-14T00:20:48;94856.91;;;18.53;52.27
18201;BME280;9226;47.858;9.594;2022-08-14T00:23:17;94851.53;;;18.53;51.63
18201;BME280;9226;47.858;9.594;2022-08-14T00:25:46;94852.75;;;18.51;52.06
18201;BME280;9226;47.858;9.594;2022-08-14T00:28:13;94859.50;;;18.47;52.01
18201;BME280;9226;47.858;9.594;2022-08-14T00:30:39;94855.06;;;18.39;52.82
18201;BME280;9226;47.858;9.594;2022-08-14T00:33:05;94842.88;;;18.36;52.58
18201;BME280;9226;47.858;9.594;2022-08-14T00:35:31;94830.81;;;18.32;52.85
18201;BME280;9226;47.858;9.594;2022-08-14T00:37:57;94829.72;;;18.26;52.97
18201;BME280;9226;47.858;9.594;2022-08-14T00:40:22;94829.91;;;18.25;53.14
18201;BME280;9226;47.858;9.594;2022-08-14T00:42:48;94831.38;;;18.27;52.28
18201;BME280;9226;47.858;9.594;2022-08-14T00:45:15;94827.88;;;18.27;52.46
18201;BME280;9226;47.858;9.594;2022-08-14T00:47:43;94822.50;;;18.27;52.42
18201;BME280;9226;47.858;9.594;2022-08-14T00:50:10;94811.94;;;18.25;52.92
18201;BME280;9226;47.858;9.594;2022-08-14T00:52:37;94805.75;;;18.25;52.98
18201;BME280;9226;47.858;9.594;2022-08-14T00:55:04;94810.66;;;18.21;53.07
18201;BME280;9226;47.858;9.594;2022-08-14T00:57:34;94813.50;;;18.20;53.09
18201;BME280;9226;47.858;9.594;2022-08-14T01:00:02;94813.69;;;18.18;52.90
18201;BME280;9226;47.858;9.594;2022-08-14T01:02:29;94805.00;;;18.16;53.01
18201;BME280;9226;47.858;9.594;2022-08-14T01:04:57;94789.47;;;18.12;53.24
18201;BME280;9226;47.858;9.594;2022-08-14T01:07:25;94776.97;;;18.04;53.73
18201;BME280;9226;47.858;9.594;2022-08-14T01:09:55;94778.84;;;18.03;53.43
18201;BME280;9226;47.858;9.594;2022-08-14T01:12:22;94780.69;;;18.03;53.04
18201;BME280;9226;47.858;9.594;2022-08-14T01:14:47;94781.72;;;18.02;53.14
18201;BME280;9226;47.858;9.594;2022-08-14T01:17:17;94779.41;;;17.99;53.00
18201;BME280;9226;47.858;9.594;2022-08-14T01:19:43;94762.00;;;17.95;53.21
18201;BME280;9226;47.858;9.594;2022-08-14T01:22:27;94768.78;;;17.90;53.29
18201;BME280;9226;47.858;9.594;2022-08-14T01:24:53;94778.16;;;17.86;53.68
18201;BME280;9226;47.858;9.594;2022-08-14T01:27:21;94777.44;;;17.78;54.13
18201;BME280;9226;47.858;9.594;2022-08-14T01:29:51;94786.94;;;17.80;53.49
18201;BME280;9226;47.858;9.594;2022-08-14T01:32:18;94784.28;;;17.80;53.54
18201;BME280;9226;47.858;9.594;2022-08-14T01:34:51;94786.03;;;17.73;54.42
18201;BME280;9226;47.858;9.594;2022-08-14T01:37:20;94792.53;;;17.64;53.83
18201;BME280;9226;47.858;9.594;2022-08-14T01:39:52;94796.56;;;17.60;54.25
18201;BME280;9226;47.858;9.594;2022-08-14T01:42:18;94792.25;;;17.59;53.97
18201;BME280;9226;47.858;9.594;2022-08-14T01:44:46;94788.97;;;17.48;55.04
18201;BME280;9226;47.858;9.594;2022-08-14T01:47:15;94798.06;;;17.47;54.90
18201;BME280;9226;47.858;9.594;2022-08-14T01:49:41;94788.72;;;17.43;54.71
18201;BME280;9226;47.858;9.594;2022-08-14T01:52:07;94786.38;;;17.40;55.44
18201;BME280;9226;47.858;9.594;2022-08-14T01:54:33;94767.34;;;17.35;55.67
18201;BME280;9226;47.858;9.594;2022-08-14T01:57:00;94763.16;;;17.32;55.69
18201;BME280;9226;47.858;9.594;2022-08-14T01:59:29;94762.72;;;17.29;55.85
18201;BME280;9226;47.858;9.594;2022-08-14T02:02:04;94760.47;;;17.17;56.85
18201;BME280;9226;47.858;9.594;2022-08-14T02:04:36;94753.09;;;17.20;55.98
18201;BME280;9226;47.858;9.594;2022-08-14T02:07:03;94749.75;;;17.17;55.81
18201;BME280;9226;47.858;9.594;2022-08-14T02:09:29;94753.81;;;17.13;56.04
18201;BME280;9226;47.858;9.594;2022-08-14T02:12:04;94757.50;;;17.12;56.45
18201;BME280;9226;47.858;9.594;2022-08-14T02:14:30;94754.16;;;17.10;56.12
18201;BME280;9226;47.858;9.594;2022-08-14T02:16:56;94755.00;;;17.11;56.26
18201;BME280;9226;47.858;9.594;2022-08-14T02:19:24;94752.50;;;17.09;55.58
18201;BME280;9226;47.858;9.594;2022-08-14T02:21:54;94749.19;;;17.07;56.38
18201;BME280;9226;47.858;9.594;2022-08-14T02:24:22;94742.13;;;17.06;56.05
18201;BME280;9226;47.858;9.594;2022-08-14T02:26:48;94741.50;;;17.04;56.47
18201;BME280;9226;47.858;9.594;2022-08-14T02:29:19;94741.84;;;17.01;56.94
18201;BME280;9226;47.858;9.594;2022-08-14T02:31:52;94732.63;;;17.04;56.23
18201;BME280;9226;47.858;9.594;2022-08-14T02:36:56;94717.75;;;17.01;56.27
18201;BME280;9226;47.858;9.594;2022-08-14T02:39:29;94719.78;;;16.99;56.09
18201;BME280;9226;47.858;9.594;2022-08-14T02:41:59;94724.31;;;16.98;56.28
18201;BME280;9226;47.858;9.594;2022-08-14T02:44:24;94728.34;;;16.94;56.78
18201;BME280;9226;47.858;9.594;2022-08-14T02:46:52;94720.69;;;16.91;56.92
18201;BME280;9226;47.858;9.594;2022-08-14T02:49:18;94716.88;;;16.86;56.94
18201;BME280;9226;47.858;9.594;2022-08-14T02:51:54;94715.56;;;16.81;57.20
18201;BME280;9226;47.858;9.594;2022-08-14T02:54:20;94716.91;;;16.77;57.21
18201;BME280;9226;47.858;9.594;2022-08-14T02:56:48;94715.91;;;16.78;57.01
18201;BME280;9226;47.858;9.594;2022-08-14T02:59:15;94707.94;;;16.70;57.53
18201;BME280;9226;47.858;9.594;2022-08-14T03:01:41;94711.63;;;16.69;56.94
18201;BME280;9226;47.858;9.594;2022-08-14T03:04:07;94707.78;;;16.72;56.93
18201;BME280;9226;47.858;9.594;2022-08-14T03:06:35;94708.97;;;16.69;56.67
18201;BME280;9226;47.858;9.594;2022-08-14T03:09:03;94709.31;;;16.66;56.92
18201;BME280;9226;47.858;9.594;2022-08-14T03:11:29;94698.97;;;16.63;56.94
18201;BME280;9226;47.858;9.594;2022-08-14T03:13:55;94685.22;;;16.66;56.92
18201;BME280;9226;47.858;9.594;2022-08-14T03:16:24;94689.09;;;16.63;57.34
18201;BME280;9226;47.858;9.594;2022-08-14T03:18:52;94683.75;;;16.63;57.25
18201;BME280;9226;47.858;9.594;2022-08-14T03:21:20;94687.44;;;16.62;56.95
18201;BME280;9226;47.858;9.594;2022-08-14T03:23:48;94684.94;;;16.61;57.33
18201;BME280;9226;47.858;9.594;2022-08-14T03:26:19;94675.91;;;16.62;57.46
18201;BME280;9226;47.858;9.594;2022-08-14T03:28:51;94664.69;;;16.58;57.43
18201;BME280;9226;47.858;9.594;2022-08-14T03:31:17;94664.69;;;16.58;57.41
18201;BME280;9226;47.858;9.594;2022-08-14T03:33:47;94662.00;;;16.58;57.04
18201;BME280;9226;47.858;9.594;2022-08-14T03:36:14;94665.53;;;16.59;56.98
18201;BME280;9226;47.858;9.594;2022-08-14T03:38:42;94659.50;;;16.57;57.47
18201;BME280;9226;47.858;9.594;2022-08-14T03:41:13;94655.56;;;16.53;57.61
18201;BME280;9226;47.858;9.594;2022-08-14T03:43:45;94659.06;;;16.53;57.50
18201;BME280;9226;47.858;9.594;2022-08-14T03:46:11;94661.09;;;16.51;57.58
18201;BME280;9226;47.858;9.594;2022-08-14T03:48:37;94656.91;;;16.49;57.96
18201;BME280;9226;47.858;9.594;2022-08-14T03:51:05;94670.31;;;16.49;57.37
18201;BME280;9226;47.858;9.594;2022-08-14T03:53:33;94670.13;;;16.50;57.37
18201;BME280;9226;47.858;9.594;2022-08-14T03:56:04;94663.28;;;16.48;57.62
18201;BME280;9226;47.858;9.594;2022-08-14T03:58:30;94657.44;;;16.44;57.78
18201;BME280;9226;47.858;9.594;2022-08-14T04:00:58;94648.31;;;16.38;57.87
18201;BME280;9226;47.858;9.594;2022-08-14T04:03:24;94644.97;;;16.36;57.92
18201;BME280;9226;47.858;9.594;2022-08-14T04:05:51;94637.09;;;16.35;57.92
18201;BME280;9226;47.858;9.594;2022-08-14T04:08:17;94630.28;;;16.32;58.10
18201;BME280;9226;47.858;9.594;2022-08-14T04:10:43;94626.75;;;16.32;58.26
18201;BME280;9226;47.858;9.594;2022-08-14T04:13:11;94628.44;;;16.33;58.18
18201;BME280;9226;47.858;9.594;2022-08-14T04:15:36;94626.94;;;16.30;58.51
18201;BME280;9226;47.858;9.594;2022-08-14T04:18:04;94623.25;;;16.31;58.38
18201;BME280;9226;47.858;9.594;2022-08-14T04:20:35;94632.97;;;16.32;58.43
18201;BME280;9226;47.858;9.594;2022-08-14T04:23:01;94648.66;;;16.35;58.91
18201;BME280;9226;47.858;9.594;2022-08-14T04:25:27;94644.25;;;16.42;58.84
18201;BME280;9226;47.858;9.594;2022-08-14T04:27:55;94642.81;;;16.55;58.84
18201;BME280;9226;47.858;9.594;2022-08-14T04:30:21;94647.19;;;16.71;58.83
18201;BME280;9226;47.858;9.594;2022-08-14T04:32:46;94649.91;;;16.86;58.90
18201;BME280;9226;47.858;9.594;2022-08-14T04:35:11;94640.97;;;17.08;58.32
18201;BME280;9226;47.858;9.594;2022-08-14T04:37:37;94656.47;;;17.28;57.80
18201;BME280;9226;47.858;9.594;2022-08-14T04:40:22;94652.59;;;17.45;57.48
18201;BME280;9226;47.858;9.594;2022-08-14T04:43:06;94659.16;;;17.58;56.81
18201;BME280;9226;47.858;9.594;2022-08-14T04:45:50;94668.13;;;17.65;56.22
18201;BME280;9226;47.858;9.594;2022-08-14T04:48:16;94661.09;;;17.64;56.51
18201;BME280;9226;47.858;9.594;2022-08-14T04:50:45;94658.78;;;17.61;56.71
18201;BME280;9226;47.858;9.594;2022-08-14T04:53:19;94658.03;;;17.67;56.53
18201;BME280;9226;47.858;9.594;2022-08-14T04:55:47;94663.47;;;17.73;56.49
18201;BME280;9226;47.858;9.594;2022-08-14T04:58:15;94664.28;;;17.74;56.69
18201;BME280;9226;47.858;9.594;2022-08-14T05:00:43;94648.91;;;17.83;56.35
18201;BME280;9226;47.858;9.594;2022-08-14T05:03:09;94659.09;;;17.87;55.96
18201;BME280;9226;47.858;9.594;2022-08-14T05:05:34;94661.06;;;17.94;56.22
18201;BME280;9226;47.858;9.594;2022-08-14T05:08:05;94654.16;;;18.06;56.00
18201;BME280;9226;47.858;9.594;2022-08-14T05:10:34;94654.47;;;18.18;55.86
18201;BME280;9226;47.858;9.594;2022-08-14T05:13:00;94651.03;;;18.24;56.04
18201;BME280;9226;47.858;9.594;2022-08-14T05:15:26;94652.78;;;18.32;56.05
18201;BME280;9226;47.858;9.594;2022-08-14T05:17:54;94653.84;;;18.37;56.06
18201;BME280;9226;47.858;9.594;2022-08-14T05:20:20;94651.34;;;18.57;55.39
18201;BME280;9226;47.858;9.594;2022-08-14T05:22:45;94640.34;;;18.52;55.83
18201;BME280;9226;47.858;9.594;2022-08-14T05:25:10;94645.47;;;18.75;55.19
18201;BME280;9226;47.858;9.594;2022-08-14T05:27:37;94649.41;;;18.94;55.20
18201;BME280;9226;47.858;9.594;2022-08-14T05:30:04;94646.59;;;19.09;54.76
18201;BME280;9226;47.858;9.594;2022-08-14T05:32:30;94642.13;;;19.23;54.80
18201;BME280;9226;47.858;9.594;2022-08-14T05:34:57;94649.56;;;19.56;54.63
18201;BME280;9226;47.858;9.594;2022-08-14T05:37:23;94644.13;;;19.98;53.96
18201;BME280;9226;47.858;9.594;2022-08-14T05:39:49;94649.00;;;20.36;52.96
18201;BME280;9226;47.858;9.594;2022-08-14T05:42:14;94654.03;;;20.72;52.03
18201;BME280;9226;47.858;9.594;2022-08-14T05:44:41;94649.25;;;21.01;51.25
18201;BME280;9226;47.858;9.594;2022-08-14T05:47:06;94655.44;;;21.22;50.48
18201;BME280;9226;47.858;9.594;2022-08-14T05:49:32;94647.53;;;21.40;49.67
18201;BME280;9226;47.858;9.594;2022-08-14T05:51:57;94654.53;;;21.68;49.30
18201;BME280;9226;47.858;9.594;2022-08-14T05:54:22;94650.63;;;22.02;48.78
18201;BME280;9226;47.858;9.594;2022-08-14T05:56:48;94647.22;;;22.20;48.16
18201;BME280;9226;47.858;9.594;2022-08-14T05:59:13;94654.06;;;22.62;47.64
18201;BME280;9226;47.858;9.594;2022-08-14T06:01:39;94644.31;;;22.86;47.41
18201;BME280;9226;47.858;9.594;2022-08-14T06:04:04;94637.88;;;23.30;46.28
18201;BME280;9226;47.858;9.594;2022-08-14T06:06:30;94641.59;;;23.73;45.40
18201;BME280;9226;47.858;9.594;2022-08-14T06:08:55;94638.34;;;24.01;44.64
18201;BME280;9226;47.858;9.594;2022-08-14T06:11:20;94631.56;;;24.11;43.29
18201;BME280;9226;47.858;9.594;2022-08-14T06:13:46;94626.94;;;24.30;42.96
18201;BME280;9226;47.858;9.594;2022-08-14T06:16:15;94623.16;;;24.31;42.61
18201;BME280;9226;47.858;9.594;2022-08-14T06:18:41;94618.09;;;24.34;43.03
18201;BME280;9226;47.858;9.594;2022-08-14T06:21:07;94619.38;;;24.32;43.38
18201;BME280;9226;47.858;9.594;2022-08-14T06:23:32;94617.06;;;24.35;43.29
18201;BME280;9226;47.858;9.594;2022-08-14T06:25:58;94615.63;;;24.63;42.49
18201;BME280;9226;47.858;9.594;2022-08-14T06:28:25;94617.34;;;25.12;41.72
18201;BME280;9226;47.858;9.594;2022-08-14T06:30:53;94599.31;;;25.29;40.64
18201;BME280;9226;47.858;9.594;2022-08-14T06:33:19;94602.00;;;25.53;39.38
18201;BME280;9226;47.858;9.594;2022-08-14T06:35:46;94599.44;;;26.15;39.08
18201;BME280;9226;47.858;9.594;2022-08-14T06:38:17;94596.91;;;26.54;37.61
18201;BME280;9226;47.858;9.594;2022-08-14T06:40:43;94590.22;;;26.45;38.52
18201;BME280;9226;47.858;9.594;2022-08-14T06:43:10;94590.84;;;27.15;37.42
18201;BME280;9226;47.858;9.594;2022-08-14T06:45:38;94592.16;;;27.30;36.97
18201;BME280;9226;47.858;9.594;2022-08-14T06:48:16;94584.81;;;27.13;35.57
18201;BME280;9226;47.858;9.594;2022-08-14T06:50:43;94591.31;;;27.46;35.86
18201;BME280;9226;47.858;9.594;2022-08-14T06:53:08;94582.97;;;28.74;34.37
18201;BME280;9226;47.858;9.594;2022-08-14T06:55:34;94576.28;;;29.24;33.92
18201;BME280;9226;47.858;9.594;2022-08-14T06:58:00;94576.94;;;29.94;33.16
18201;BME280;9226;47.858;9.594;2022-08-14T07:00:27;94576.03;;;30.67;31.74
18201;BME280;9226;47.858;9.594;2022-08-14T07:02:53;94573.84;;;30.49;30.88
18201;BME280;9226;47.858;9.594;2022-08-14T07:05:37;94582.38;;;30.99;31.38
18201;BME280;9226;47.858;9.594;2022-08-14T07:08:25;94573.53;;;31.59;29.67
18201;BME280;9226;47.858;9.594;2022-08-14T07:10:53;94576.34;;;32.19;28.05
18201;BME280;9226;47.858;9.594;2022-08-14T07:13:20;94583.56;;;32.94;27.82
18201;BME280;9226;47.858;9.594;2022-08-14T07:15:50;94581.59;;;32.15;27.84
18201;BME280;9226;47.858;9.594;2022-08-14T07:18:23;94584.00;;;32.72;27.97
18201;BME280;9226;47.858;9.594;2022-08-14T07:20:50;94588.06;;;33.19;27.22
18201;BME280;9226;47.858;9.594;2022-08-14T07:23:16;94587.59;;;33.70;26.89
18201;BME280;9226;47.858;9.594;2022-08-14T07:25:43;94578.22;;;33.71;26.32
18201;BME280;9226;47.858;9.594;2022-08-14T07:30:49;94571.50;;;33.29;27.57
18201;BME280;9226;47.858;9.594;2022-08-14T07:33:15;94571.56;;;33.48;26.95
18201;BME280;9226;47.858;9.594;2022-08-14T07:35:41;94571.56;;;33.19;26.92
18201;BME280;9226;47.858;9.594;2022-08-14T07:38:07;94566.22;;;32.98;27.27
18201;BME280;9226;47.858;9.594;2022-08-14T07:40:33;94573.88;;;33.65;27.09
18201;BME280;9226;47.858;9.594;2022-08-14T07:43:02;94577.78;;;34.07;26.73
18201;BME280;9226;47.858;9.594;2022-08-14T07:45:27;94572.06;;;34.47;26.08
18201;BME280;9226;47.858;9.594;2022-08-14T07:47:53;94572.00;;;34.33;25.93
18201;BME280;9226;47.858;9.594;2022-08-14T07:50:22;94582.84;;;34.24;25.83
18201;BME280;9226;47.858;9.594;2022-08-14T07:52:48;94579.47;;;33.55;26.47
18201;BME280;9226;47.858;9.594;2022-08-14T07:55:15;94583.59;;;34.30;26.13
18201;BME280;9226;47.858;9.594;2022-08-14T07:57:45;94588.81;;;34.51;25.67
18201;BME280;9226;47.858;9.594;2022-08-14T08:00:14;94581.59;;;34.12;25.25
18201;BME280;9226;47.858;9.594;2022-08-14T08:02:42;94588.50;;;34.09;26.44
18201;BME280;9226;47.858;9.594;2022-08-14T08:05:10;94574.78;;;33.56;25.94
18201;BME280;9226;47.858;9.594;2022-08-14T08:07:37;94571.94;;;33.07;26.48
18201;BME280;9226;47.858;9.594;2022-08-14T08:10:06;94577.81;;;33.54;26.26
18201;BME280;9226;47.858;9.594;2022-08-14T08:12:54;94575.69;;;33.99;25.50
18201;BME280;9226;47.858;9.594;2022-08-14T08:15:22;94584.19;;;34.03;25.86
18201;BME280;9226;47.858;9.594;2022-08-14T08:17:47;94580.78;;;33.87;25.47
18201;BME280;9226;47.858;9.594;2022-08-14T08:20:18;94579.22;;;34.48;25.17
18201;BME280;9226;47.858;9.594;2022-08-14T08:22:45;94571.63;;;34.97;24.72
18201;BME280;9226;47.858;9.594;2022-08-14T08:25:11;94576.38;;;34.53;24.33
18201;BME280;9226;47.858;9.594;2022-08-14T08:27:37;94568.19;;;34.48;24.00
18201;BME280;9226;47.858;9.594;2022-08-14T08:30:07;94572.81;;;34.53;23.31
18201;BME280;9226;47.858;9.594;2022-08-14T08:32:41;94579.63;;;35.12;24.23
18201;BME280;9226;47.858;9.594;2022-08-14T08:35:16;94582.06;;;35.94;22.44
18201;BME280;9226;47.858;9.594;2022-08-14T08:37:42;94584.00;;;36.07;23.23
18201;BME280;9226;47.858;9.594;2022-08-14T08:40:08;94588.03;;;35.54;24.04
18201;BME280;9226;47.858;9.594;2022-08-14T08:42:34;94583.09;;;35.98;22.80
18201;BME280;9226;47.858;9.594;2022-08-14T08:44:59;94581.75;;;35.81;23.43
18201;BME280;9226;47.858;9.594;2022-08-14T08:47:25;94571.09;;;36.44;22.99
18201;BME280;9226;47.858;9.594;2022-08-14T08:50:01;94579.09;;;36.68;22.16
18201;BME280;9226;47.858;9.594;2022-08-14T08:52:28;94576.69;;;36.89;21.17
18201;BME280;9226;47.858;9.594;2022-08-14T08:54:54;94579.81;;;37.33;21.43
18201;BME280;9226;47.858;9.594;2022-08-14T08:57:20;94578.19;;;37.63;21.45
18201;BME280;9226;47.858;9.594;2022-08-14T08:59:45;94583.38;;;37.88;20.61
18201;BME280;9226;47.858;9.594;2022-08-14T09:02:11;94579.97;;;37.59;20.77
18201;BME280;9226;47.858;9.594;2022-08-14T09:04:41;94574.59;;;37.32;20.36
18201;BME280;9226;47.858;9.594;2022-08-14T09:07:09;94572.41;;;37.74;20.17
18201;BME280;9226;47.858;9.594;2022-08-14T09:09:35;94571.78;;;37.77;20.46
18201;BME280;9226;47.858;9.594;2022-08-14T09:12:16;94566.84;;;38.05;20.08
18201;BME280;9226;47.858;9.594;2022-08-14T09:14:42;94553.06;;;38.23;19.56
18201;BME280;9226;47.858;9.594;2022-08-14T09:17:08;94547.69;;;38.35;18.91
18201;BME280;9226;47.858;9.594;2022-08-14T09:19:35;94531.47;;;38.11;19.47
18201;BME280;9226;47.858;9.594;2022-08-14T09:22:02;94539.59;;;37.98;19.15
18201;BME280;9226;47.858;9.594;2022-08-14T09:24:28;94529.84;;;37.07;19.28
18201;BME280;9226;47.858;9.594;2022-08-14T09:26:54;94534.63;;;37.15;19.39
18201;BME280;9226;47.858;9.594;2022-08-14T09:29:20;94539.53;;;37.81;18.79
18201;BME280;9226;47.858;9.594;2022-08-14T09:31:49;94539.25;;;37.91;18.97
18201;BME280;9226;47.858;9.594;2022-08-14T09:36:56;94528.97;;;38.58;17.86
18201;BME280;9226;47.858;9.594;2022-08-14T09:42:21;94523.13;;;39.03;17.81
18201;BME280;9226;47.858;9.594;2022-08-14T09:50:47;94513.19;;;39.11;18.67
18201;BME280;9226;47.858;9.594;2022-08-14T09:53:40;94514.63;;;38.47;19.63
18201;BME280;9226;47.858;9.594;2022-08-14T09:56:09;94514.31;;;39.10;18.86
18201;BME280;9226;47.858;9.594;2022-08-14T09:58:44;94517.41;;;39.08;19.50
18201;BME280;9226;47.858;9.594;2022-08-14T10:03:36;94520.81;;;40.18;18.61
18201;BME280;9226;47.858;9.594;2022-08-14T10:06:14;94511.16;;;40.15;18.54
18201;BME280;9226;47.858;9.594;2022-08-14T10:08:51;94509.44;;;40.31;18.56
18201;BME280;9226;47.858;9.594;2022-08-14T10:11:23;94497.78;;;40.38;17.99
18201;BME280;9226;47.858;9.594;2022-08-14T10:13:55;94491.59;;;40.41;17.69
18201;BME280;9226;47.858;9.594;2022-08-14T10:16:25;94492.59;;;40.58;17.82
18201;BME280;9226;47.858;9.594;2022-08-14T10:19:09;94485.00;;;40.67;17.32
18201;BME280;9226;47.858;9.594;2022-08-14T10:21:38;94486.34;;;40.61;17.59
18201;BME280;9226;47.858;9.594;2022-08-14T10:24:04;94484.72;;;40.09;17.47
18201;BME280;9226;47.858;9.594;2022-08-14T10:26:34;94476.34;;;40.39;17.49
18201;BME280;9226;47.858;9.594;2022-08-14T10:29:09;94472.09;;;38.61;18.51
18201;BME280;9226;47.858;9.594;2022-08-14T10:31:37;94476.50;;;39.44;17.81
18201;BME280;9226;47.858;9.594;2022-08-14T10:34:10;94481.78;;;39.28;17.70
18201;BME280;9226;47.858;9.594;2022-08-14T10:36:43;94485.88;;;39.22;17.38
18201;BME280;9226;47.858;9.594;2022-08-14T10:41:42;94488.31;;;39.32;17.40
18201;BME280;9226;47.858;9.594;2022-08-14T10:44:16;94471.56;;;39.02;17.79
18201;BME280;9226;47.858;9.594;2022-08-14T10:49:23;94469.81;;;38.63;17.05
18201;BME280;9226;47.858;9.594;2022-08-14T10:52:01;94462.31;;;38.54;18.07
18201;BME280;9226;47.858;9.594;2022-08-14T10:57:24;94451.88;;;38.51;17.52
18201;BME280;9226;47.858;9.594;2022-08-14T10:59:59;94458.22;;;38.17;18.22
18201;BME280;9226;47.858;9.594;2022-08-14T11:07:27;94452.94;;;37.09;19.79
18201;BME280;9226;47.858;9.594;2022-08-14T11:09:58;94448.56;;;36.85;19.05
18201;BME280;9226;47.858;9.594;2022-08-14T11:12:24;94454.94;;;36.49;18.97
18201;BME280;9226;47.858;9.594;2022-08-14T11:14:57;94447.38;;;36.18;18.94
18201;BME280;9226;47.858;9.594;2022-08-14T11:17:26;94446.84;;;36.16;20.17
18201;BME280;9226;47.858;9.594;2022-08-14T11:19:57;94448.94;;;36.11;19.35
18201;BME280;9226;47.858;9.594;2022-08-14T11:22:26;94449.69;;;35.89;19.09
18201;BME280;9226;47.858;9.594;2022-08-14T11:24:53;94442.78;;;35.77;19.11
18201;BME280;9226;47.858;9.594;2022-08-14T11:27:22;94439.88;;;35.55;19.95
18201;BME280;9226;47.858;9.594;2022-08-14T11:29:49;94441.91;;;35.91;19.62
18201;BME280;9226;47.858;9.594;2022-08-14T11:32:16;94434.03;;;35.98;20.92
18201;BME280;9226;47.858;9.594;2022-08-14T11:34:45;94436.00;;;35.83;20.41
18201;BME280;9226;47.858;9.594;2022-08-14T11:37:11;94432.91;;;35.85;20.25
18201;BME280;9226;47.858;9.594;2022-08-14T11:39:37;94427.50;;;35.66;20.75
18201;BME280;9226;47.858;9.594;2022-08-14T11:42:07;94434.03;;;35.14;20.82
18201;BME280;9226;47.858;9.594;2022-08-14T11:44:43;94434.44;;;35.22;21.25
18201;BME280;9226;47.858;9.594;2022-08-14T11:47:10;94434.22;;;35.04;20.90
18201;BME280;9226;47.858;9.594;2022-08-14T11:49:46;94438.22;;;35.12;21.03
18201;BME280;9226;47.858;9.594;2022-08-14T11:52:16;94432.00;;;34.73;21.56
18201;BME280;9226;47.858;9.594;2022-08-14T11:54:56;94426.31;;;34.84;21.91
18201;BME280;9226;47.858;9.594;2022-08-14T11:57:21;94417.66;;;34.76;21.66
18201;BME280;9226;47.858;9.594;2022-08-14T11:59:47;94420.66;;;34.94;22.47
18201;BME280;9226;47.858;9.594;2022-08-14T12:02:14;94409.53;;;34.99;22.36
18201;BME280;9226;47.858;9.594;2022-08-14T12:04:50;94425.41;;;34.88;22.53
18201;BME280;9226;47.858;9.594;2022-08-14T12:07:16;94421.13;;;34.82;22.69
18201;BME280;9226;47.858;9.594;2022-08-14T12:09:43;94408.69;;;34.52;22.53
18201;BME280;9226;47.858;9.594;2022-08-14T12:12:16;94414.84;;;33.48;22.47
18201;BME280;9226;47.858;9.594;2022-08-14T12:17:14;94404.31;;;34.13;23.49
18201;BME280;9226;47.858;9.594;2022-08-14T12:22:15;94396.47;;;34.58;22.84
18201;BME280;9226;47.858;9.594;2022-08-14T12:24:41;94400.16;;;34.67;23.21
18201;BME280;9226;47.858;9.594;2022-08-14T12:27:09;94395.34;;;34.26;22.94
18201;BME280;9226;47.858;9.594;2022-08-14T12:29:37;94386.94;;;33.79;23.30
18201;BME280;9226;47.858;9.594;2022-08-14T12:32:06;94386.94;;;33.98;23.44
18201;BME280;9226;47.858;9.594;2022-08-14T12:34:33;94387.19;;;33.83;22.87
18201;BME280;9226;47.858;9.594;2022-08-14T12:37:05;94387.47;;;34.00;22.80
18201;BME280;9226;47.858;9.594;2022-08-14T12:39:33;94380.00;;;33.63;22.72
18201;BME280;9226;47.858;9.594;2022-08-14T12:41:58;94388.00;;;33.83;23.22
18201;BME280;9226;47.858;9.594;2022-08-14T12:44:36;94385.41;;;33.68;22.77
18201;BME280;9226;47.858;9.594;2022-08-14T12:47:12;94388.50;;;33.85;23.67
18201;BME280;9226;47.858;9.594;2022-08-14T12:49:48;94386.91;;;33.60;23.01
18201;BME280;9226;47.858;9.594;2022-08-14T12:55:02;94381.81;;;33.72;23.11
18201;BME280;9226;47.858;9.594;2022-08-14T12:57:45;94382.19;;;33.85;23.37
18201;BME280;9226;47.858;9.594;2022-08-14T13:00:16;94375.50;;;33.91;23.70
18201;BME280;9226;47.858;9.594;2022-08-14T13:02:44;94370.13;;;34.00;23.05
18201;BME280;9226;47.858;9.594;2022-08-14T13:05:12;94369.75;;;34.06;23.71
18201;BME280;9226;47.858;9.594;2022-08-14T13:07:39;94370.56;;;34.07;23.64
18201;BME280;9226;47.858;9.594;2022-08-14T13:10:07;94366.91;;;34.12;23.28
18201;BME280;9226;47.858;9.594;2022-08-14T13:12:35;94371.75;;;34.01;22.58
18201;BME280;9226;47.858;9.594;2022-08-14T13:15:02;94359.81;;;33.72;23.01
18201;BME280;9226;47.858;9.594;2022-08-14T13:17:27;94354.00;;;33.74;23.59
18201;BME280;9226;47.858;9.594;2022-08-14T13:19:55;94357.81;;;33.54;23.90
18201;BME280;9226;47.858;9.594;2022-08-14T13:22:25;94364.66;;;33.38;24.36
18201;BME280;9226;47.858;9.594;2022-08-14T13:24:54;94362.78;;;33.33;23.88
18201;BME280;9226;47.858;9.594;2022-08-14T13:27:24;94357.81;;;33.35;24.19
18201;BME280;9226;47.858;9.594;2022-08-14T13:29:51;94355.06;;;33.11;24.13
18201;BME280;9226;47.858;9.594;2022-08-14T13:32:25;94364.34;;;33.20;24.24
18201;BME280;9226;47.858;9.594;2022-08-14T13:34:53;94359.47;;;33.12;24.33
18201;BME280;9226;47.858;9.594;2022-08-14T13:37:18;94362.91;;;32.98;24.19
18201;BME280;9226;47.858;9.594;2022-08-14T13:39:48;94351.69;;;32.71;25.23
18201;BME280;9226;47.858;9.594;2022-08-14T13:42:16;94357.41;;;32.74;25.74
18201;BME280;9226;47.858;9.594;2022-08-14T13:44:43;94357.41;;;32.45;25.66
18201;BME280;9226;47.858;9.594;2022-08-14T13:47:10;94352.09;;;32.54;26.56
18201;BME280;9226;47.858;9.594;2022-08-14T13:49:36;94339.88;;;32.41;26.03
18201;BME280;9226;47.858;9.594;2022-08-14T13:52:02;94352.06;;;32.30;26.11
18201;BME280;9226;47.858;9.594;2022-08-14T13:54:29;94338.47;;;32.14;25.94
18201;BME280;9226;47.858;9.594;2022-08-14T13:56:59;94339.34;;;32.09;26.38